createdAt,value
2023-02-01T00:00:13.621Z,85.32
2023-02-01T00:01:13.649Z,85.29
2023-02-01T00:02:13.593Z,85.36
2023-02-01T00:03:13.588Z,85.37
2023-02-01T00:04:13.604Z,85.36
2023-02-01T00:05:13.626Z,85.33
2023-02-01T00:06:13.673Z,85.35
2023-02-01T00:07:14.529Z,85.28
2023-02-01T00:08:13.643Z,85.20
2023-02-01T00:09:13.580Z,85.20
2023-02-01T00:10:13.563Z,85.13
2023-02-01T00:11:13.504Z,85.16
2023-02-01T00:12:13.514Z,85.16
2023-02-01T00:13:13.538Z,85.11
2023-02-01T00:14:13.477Z,84.98
2023-02-01T00:15:13.532Z,84.85
2023-02-01T00:16:13.559Z,84.84
2023-02-01T00:17:13.465Z,84.72
2023-02-01T00:18:13.451Z,84.71
2023-02-01T00:19:13.435Z,84.65
2023-02-01T00:20:13.443Z,84.56
2023-02-01T00:21:13.411Z,84.32
2023-02-01T00:22:13.421Z,84.28
2023-02-01T00:23:13.399Z,84.33
2023-02-01T00:24:13.416Z,84.27
2023-02-01T00:25:13.368Z,84.33
2023-02-01T00:26:13.414Z,84.32
2023-02-01T00:27:13.599Z,84.23
2023-02-01T00:28:13.350Z,84.29
2023-02-01T00:29:13.322Z,84.33
2023-02-01T00:30:13.326Z,84.29
2023-02-01T00:31:13.435Z,84.28
2023-02-01T00:32:13.344Z,84.09
2023-02-01T00:33:13.343Z,83.93
2023-02-01T00:34:13.270Z,83.93
2023-02-01T00:35:13.281Z,83.91
2023-02-01T00:36:13.290Z,83.86
2023-02-01T00:37:13.259Z,83.81
2023-02-01T00:38:13.262Z,83.76
2023-02-01T00:39:13.251Z,83.79
2023-02-01T00:40:13.237Z,83.73
2023-02-01T00:41:13.245Z,83.73
2023-02-01T00:42:13.197Z,83.77
2023-02-01T00:43:13.192Z,83.81
2023-02-01T00:44:13.210Z,83.68
2023-02-01T00:45:13.174Z,83.62
2023-02-01T00:46:13.223Z,83.63
2023-02-01T00:47:13.155Z,83.63
2023-02-01T00:48:13.158Z,83.65
2023-02-01T00:49:13.142Z,83.73
2023-02-01T00:50:13.153Z,83.71
2023-02-01T00:51:13.152Z,83.85
2023-02-01T00:52:13.141Z,83.90
2023-02-01T00:53:13.113Z,83.80
2023-02-01T00:54:13.128Z,83.73
2023-02-01T00:55:13.092Z,83.66
2023-02-01T00:56:13.083Z,83.68
2023-02-01T00:57:13.106Z,83.71
2023-02-01T00:58:13.082Z,83.72
2023-02-01T00:59:13.424Z,83.85
2023-02-01T01:00:13.065Z,83.95
2023-02-01T01:01:13.108Z,83.93
2023-02-01T01:02:13.031Z,83.96
2023-02-01T01:03:12.995Z,83.95
2023-02-01T01:04:12.993Z,83.90
2023-02-01T01:05:12.992Z,83.94
2023-02-01T01:06:13.090Z,83.86
2023-02-01T01:07:12.962Z,83.83
2023-02-01T01:08:12.974Z,83.91
2023-02-01T01:09:12.962Z,83.92
2023-02-01T01:10:12.956Z,83.93
2023-02-01T01:11:12.975Z,83.86
2023-02-01T01:12:12.914Z,83.81
2023-02-01T01:13:12.906Z,83.87
2023-02-01T01:14:13.013Z,83.92
2023-02-01T01:15:12.910Z,83.75
2023-02-01T01:16:12.911Z,83.57
2023-02-01T01:17:12.883Z,83.49
2023-02-01T01:18:12.859Z,83.50
2023-02-01T01:19:12.977Z,83.55
2023-02-01T01:20:12.855Z,83.50
2023-02-01T01:21:12.861Z,83.56
2023-02-01T01:22:12.892Z,83.54
2023-02-01T01:23:12.819Z,83.49
2023-02-01T01:24:12.850Z,83.50
2023-02-01T01:25:12.816Z,83.38
2023-02-01T01:26:12.820Z,83.32
2023-02-01T01:27:12.842Z,83.33
2023-02-01T01:28:12.809Z,83.27
2023-02-01T01:29:12.792Z,83.23
2023-02-01T01:30:12.764Z,83.07
2023-02-01T01:31:12.896Z,82.92
2023-02-01T01:32:12.770Z,82.86
2023-02-01T01:33:12.750Z,82.74
2023-02-01T01:34:12.775Z,82.71
2023-02-01T01:35:12.722Z,82.73
2023-02-01T01:36:12.792Z,82.80
2023-02-01T01:37:12.714Z,82.82
2023-02-01T01:38:12.724Z,82.92
2023-02-01T01:39:12.691Z,82.94
2023-02-01T01:40:12.633Z,82.99
2023-02-01T01:41:12.801Z,82.80
2023-02-01T01:42:12.671Z,82.64
2023-02-01T01:43:12.603Z,82.73
2023-02-01T01:44:12.621Z,82.65
2023-02-01T01:45:12.611Z,82.67
2023-02-01T01:46:12.575Z,82.79
2023-02-01T01:47:12.565Z,82.99
2023-02-01T01:48:12.584Z,83.09
2023-02-01T01:49:12.596Z,83.19
2023-02-01T01:50:12.552Z,83.33
2023-02-01T01:51:12.562Z,83.35
2023-02-01T01:52:12.537Z,83.26
2023-02-01T01:53:12.516Z,83.12
2023-02-01T01:54:12.510Z,83.15
2023-02-01T01:55:12.525Z,83.36
2023-02-01T01:56:12.511Z,83.50
2023-02-01T01:57:12.491Z,83.80
2023-02-01T01:58:12.511Z,84.00
2023-02-01T01:59:12.530Z,84.14
2023-02-01T02:00:12.476Z,84.23
2023-02-01T02:02:31.105Z,84.35
2023-02-01T02:03:32.060Z,84.38
2023-02-01T02:04:32.064Z,84.49
2023-02-01T02:05:32.038Z,84.46
2023-02-01T02:06:32.030Z,84.39
2023-02-01T02:07:32.042Z,84.40
2023-02-01T02:08:32.043Z,84.43
2023-02-01T02:09:32.098Z,84.49
2023-02-01T02:10:32.001Z,84.65
2023-02-01T02:11:31.994Z,84.69
2023-02-01T02:12:31.990Z,84.68
2023-02-01T02:13:31.970Z,84.71
2023-02-01T02:14:31.994Z,84.72
2023-02-01T02:15:31.958Z,84.76
2023-02-01T02:16:31.963Z,84.82
2023-02-01T02:17:31.929Z,84.91
2023-02-01T02:18:32.123Z,84.96
2023-02-01T02:19:32.014Z,85.03
2023-02-01T02:20:31.947Z,85.07
2023-02-01T02:21:31.889Z,85.13
2023-02-01T02:22:31.895Z,85.13
2023-02-01T02:23:31.901Z,85.17
2023-02-01T02:24:31.859Z,85.24
2023-02-01T02:25:31.851Z,85.26
2023-02-01T02:26:31.909Z,85.31
2023-02-01T02:27:31.831Z,85.34
2023-02-01T02:28:31.830Z,85.28
2023-02-01T02:29:31.830Z,85.26
2023-02-01T02:30:31.847Z,85.28
2023-02-01T02:31:31.879Z,85.27
2023-02-01T02:32:31.816Z,85.20
2023-02-01T02:33:31.784Z,85.20
2023-02-01T02:34:31.793Z,85.24
2023-02-01T02:35:31.762Z,85.19
2023-02-01T02:36:32.071Z,85.21
2023-02-01T02:37:31.798Z,85.14
2023-02-01T02:38:31.737Z,85.12
2023-02-01T02:39:31.739Z,85.11
2023-02-01T02:40:31.703Z,85.09
2023-02-01T02:41:31.760Z,85.06
2023-02-01T02:42:31.710Z,85.02
2023-02-01T02:43:31.710Z,85.01
2023-02-01T02:44:31.720Z,85.02
2023-02-01T02:45:31.690Z,85.03
2023-02-01T02:46:31.637Z,85.08
2023-02-01T02:47:31.630Z,85.07
2023-02-01T02:48:31.635Z,85.09
2023-02-01T02:49:31.626Z,85.08
2023-02-01T02:50:31.633Z,85.10
2023-02-01T02:51:31.620Z,85.14
2023-02-01T02:52:31.613Z,85.13
2023-02-01T02:53:31.639Z,85.16
2023-02-01T02:54:31.586Z,85.00
2023-02-01T02:55:31.550Z,84.87
2023-02-01T02:56:31.544Z,84.70
2023-02-01T02:57:31.555Z,84.69
2023-02-01T02:58:31.563Z,84.74
2023-02-01T02:59:31.598Z,84.85
2023-02-01T03:00:31.501Z,84.92
2023-02-01T03:01:31.519Z,84.99
2023-02-01T03:02:31.498Z,84.93
2023-02-01T03:03:31.509Z,84.83
2023-02-01T03:04:31.503Z,84.78
2023-02-01T03:05:31.465Z,84.84
2023-02-01T03:06:31.459Z,84.77
2023-02-01T03:07:31.460Z,84.78
2023-02-01T03:08:31.451Z,84.82
2023-02-01T03:09:31.439Z,84.83
2023-02-01T03:10:31.415Z,84.94
2023-02-01T03:11:31.437Z,85.08
2023-02-01T03:12:31.390Z,85.09
2023-02-01T03:13:31.407Z,85.05
2023-02-01T03:14:31.389Z,84.99
2023-02-01T03:15:31.368Z,84.92
2023-02-01T03:16:31.509Z,84.88
2023-02-01T03:17:31.342Z,84.84
2023-02-01T03:18:31.325Z,84.83
2023-02-01T03:19:31.332Z,84.83
2023-02-01T03:20:31.337Z,84.94
2023-02-01T03:21:31.320Z,85.12
2023-02-01T03:22:31.321Z,85.24
2023-02-01T03:23:31.298Z,85.34
2023-02-01T03:24:31.277Z,85.39
2023-02-01T03:25:31.265Z,85.46
2023-02-01T03:26:31.293Z,85.49
2023-02-01T03:27:31.282Z,85.55
2023-02-01T03:28:31.244Z,85.61
2023-02-01T03:29:31.224Z,85.66
2023-02-01T03:30:31.244Z,85.69
2023-02-01T03:31:31.224Z,85.71
2023-02-01T03:32:31.210Z,85.77
2023-02-01T03:33:31.320Z,85.75
2023-02-01T03:34:31.186Z,85.76
2023-02-01T03:35:31.192Z,85.75
2023-02-01T03:36:31.160Z,85.70
2023-02-01T03:37:31.158Z,85.81
2023-02-01T03:38:31.131Z,85.89
2023-02-01T03:39:31.125Z,85.96
2023-02-01T03:40:31.159Z,86.05
2023-02-01T03:41:31.128Z,86.13
2023-02-01T03:42:31.132Z,86.14
2023-02-01T03:43:31.100Z,86.16
2023-02-01T03:44:31.098Z,86.17
2023-02-01T03:45:31.267Z,86.20
2023-02-01T03:46:31.072Z,86.07
2023-02-01T03:47:31.086Z,86.08
2023-02-01T03:48:31.072Z,86.20
2023-02-01T03:49:31.045Z,86.29
2023-02-01T03:50:31.028Z,86.44
2023-02-01T03:51:31.214Z,86.48
2023-02-01T03:52:31.015Z,86.60
2023-02-01T03:53:31.002Z,86.71
2023-02-01T03:54:30.978Z,86.77
2023-02-01T03:55:31.221Z,86.82
2023-02-01T03:56:31.001Z,86.94
2023-02-01T03:57:30.972Z,87.05
2023-02-01T03:58:30.967Z,87.12
2023-02-01T03:59:30.966Z,87.26
2023-02-01T04:00:30.921Z,87.36
2023-02-01T04:01:30.988Z,87.48
2023-02-01T04:02:30.965Z,87.60
2023-02-01T04:03:30.922Z,87.68
2023-02-01T04:04:30.892Z,87.77
2023-02-01T04:05:30.908Z,87.86
2023-02-01T04:06:30.922Z,87.94
2023-02-01T04:07:30.906Z,88.08
2023-02-01T04:08:30.863Z,88.12
2023-02-01T04:09:30.850Z,88.19
2023-02-01T04:10:30.822Z,88.24
2023-02-01T04:11:30.823Z,88.29
2023-02-01T04:12:30.811Z,88.31
2023-02-01T04:13:30.827Z,88.31
2023-02-01T04:14:30.808Z,88.33
2023-02-01T04:15:30.775Z,88.39
2023-02-01T04:16:30.836Z,88.49
2023-02-01T04:17:30.762Z,88.53
2023-02-01T04:18:30.778Z,88.61
2023-02-01T04:19:30.925Z,88.66
2023-02-01T04:20:30.787Z,88.71
2023-02-01T04:21:30.736Z,88.79
2023-02-01T04:22:30.723Z,88.84
2023-02-01T04:23:30.715Z,88.82
2023-02-01T04:24:30.713Z,88.77
2023-02-01T04:25:30.686Z,88.78
2023-02-01T04:26:30.707Z,88.75
2023-02-01T04:27:30.676Z,88.73
2023-02-01T04:28:30.680Z,88.79
2023-02-01T04:29:30.654Z,88.87
2023-02-01T04:30:30.747Z,88.96
2023-02-01T04:31:30.713Z,89.07
2023-02-01T04:32:30.671Z,89.09
2023-02-01T04:33:30.604Z,89.11
2023-02-01T04:34:30.616Z,89.12
2023-02-01T04:35:30.589Z,89.12
2023-02-01T04:36:30.600Z,89.10
2023-02-01T04:37:30.588Z,89.07
2023-02-01T04:38:30.564Z,89.01
2023-02-01T04:39:30.598Z,88.99
2023-02-01T04:40:30.534Z,88.99
2023-02-01T04:41:30.526Z,89.01
2023-02-01T04:42:30.536Z,89.04
2023-02-01T04:43:30.513Z,89.06
2023-02-01T04:44:30.538Z,89.05
2023-02-01T04:45:30.511Z,89.02
2023-02-01T04:46:30.567Z,89.00
2023-02-01T04:47:30.470Z,89.03
2023-02-01T04:48:30.472Z,88.99
2023-02-01T04:49:30.455Z,88.94
2023-02-01T04:50:30.492Z,88.87
2023-02-01T04:51:30.437Z,88.88
2023-02-01T04:52:30.706Z,88.84
2023-02-01T04:53:30.443Z,88.79
2023-02-01T04:54:30.454Z,88.75
2023-02-01T04:55:30.399Z,88.70
2023-02-01T04:56:30.408Z,88.65
2023-02-01T04:57:30.398Z,88.65
2023-02-01T04:58:30.365Z,88.64
2023-02-01T04:59:30.402Z,88.59
2023-02-01T05:00:30.360Z,88.54
2023-02-01T05:01:30.348Z,88.52
2023-02-01T05:02:30.344Z,88.53
2023-02-01T05:03:30.345Z,88.58
2023-02-01T05:04:30.355Z,88.58
2023-02-01T05:05:30.319Z,88.61
2023-02-01T05:06:30.356Z,88.64
2023-02-01T05:07:30.290Z,88.69
2023-02-01T05:08:30.288Z,88.71
2023-02-01T05:09:30.251Z,88.75
2023-02-01T05:10:30.277Z,88.75
2023-02-01T05:11:30.244Z,88.77
2023-02-01T05:12:30.255Z,88.77
2023-02-01T05:13:30.290Z,88.78
2023-02-01T05:14:30.235Z,88.72
2023-02-01T05:15:30.239Z,88.70
2023-02-01T05:16:30.195Z,88.69
2023-02-01T05:17:30.210Z,88.68
2023-02-01T05:18:30.170Z,88.70
2023-02-01T05:19:30.179Z,88.76
2023-02-01T05:20:30.150Z,88.84
2023-02-01T05:21:30.154Z,88.91
2023-02-01T05:22:30.169Z,88.94
2023-02-01T05:23:30.141Z,88.97
2023-02-01T05:24:30.168Z,88.99
2023-02-01T05:25:30.169Z,89.02
2023-02-01T05:26:30.154Z,89.06
2023-02-01T05:27:30.099Z,89.09
2023-02-01T05:28:30.100Z,89.09
2023-02-01T05:29:30.083Z,89.11
2023-02-01T05:30:30.053Z,89.11
2023-02-01T05:31:30.226Z,89.11
2023-02-01T05:32:30.190Z,89.16
2023-02-01T05:33:30.019Z,89.18
2023-02-01T05:34:30.027Z,89.18
2023-02-01T05:35:30.027Z,89.25
2023-02-01T05:36:29.995Z,89.27
2023-02-01T05:37:30.004Z,89.29
2023-02-01T05:38:30.001Z,89.32
2023-02-01T05:39:29.985Z,89.28
2023-02-01T05:40:29.984Z,89.25
2023-02-01T05:41:29.992Z,89.22
2023-02-01T05:42:29.938Z,89.19
2023-02-01T05:43:29.945Z,89.18
2023-02-01T05:44:29.957Z,89.15
2023-02-01T05:45:29.926Z,89.13
2023-02-01T05:46:30.015Z,89.17
2023-02-01T05:47:29.896Z,89.17
2023-02-01T05:48:29.881Z,89.17
2023-02-01T05:49:29.906Z,89.17
2023-02-01T05:50:29.890Z,89.13
2023-02-01T05:51:29.862Z,89.13
2023-02-01T05:52:29.841Z,89.11
2023-02-01T05:53:29.835Z,89.08
2023-02-01T05:54:29.843Z,89.07
2023-02-01T05:55:29.806Z,89.03
2023-02-01T05:56:29.803Z,89.03
2023-02-01T05:57:29.818Z,89.04
2023-02-01T05:58:34.167Z,89.03
2023-02-01T05:59:29.774Z,89.01
2023-02-01T06:00:29.778Z,89.01
2023-02-01T06:01:29.756Z,88.98
2023-02-01T06:02:29.809Z,89.00
2023-02-01T06:03:29.819Z,89.00
2023-02-01T06:04:29.731Z,89.01
2023-02-01T06:05:29.751Z,89.00
2023-02-01T06:06:29.735Z,89.01
2023-02-01T06:07:29.935Z,89.01
2023-02-01T06:08:29.704Z,89.00
2023-02-01T06:09:29.701Z,89.00
2023-02-01T06:10:29.702Z,89.01
2023-02-01T06:11:32.656Z,89.00
2023-02-01T06:12:29.679Z,88.96
2023-02-01T06:13:29.665Z,88.92
2023-02-01T06:14:29.624Z,88.91
2023-02-01T06:15:29.649Z,88.92
2023-02-01T06:16:29.660Z,88.95
2023-02-01T06:17:29.646Z,88.95
2023-02-01T06:18:29.564Z,88.96
2023-02-01T06:19:29.541Z,88.94
2023-02-01T06:20:29.605Z,88.92
2023-02-01T06:21:29.559Z,88.92
2023-02-01T06:22:29.571Z,88.86
2023-02-01T06:23:29.546Z,88.83
2023-02-01T06:24:29.509Z,88.84
2023-02-01T06:25:29.561Z,88.85
2023-02-01T06:26:29.582Z,88.84
2023-02-01T06:27:29.458Z,88.80
2023-02-01T06:28:29.440Z,88.71
2023-02-01T06:29:29.438Z,88.65
2023-02-01T06:30:29.424Z,88.55
2023-02-01T06:31:29.524Z,88.36
2023-02-01T06:32:29.392Z,88.28
2023-02-01T06:33:29.393Z,88.18
2023-02-01T06:34:29.395Z,88.07
2023-02-01T06:35:29.421Z,87.91
2023-02-01T06:36:29.372Z,87.65
2023-02-01T06:37:29.424Z,87.51
2023-02-01T06:38:29.374Z,87.37
2023-02-01T06:39:29.337Z,87.29
2023-02-01T06:40:29.368Z,87.32
2023-02-01T06:41:29.782Z,87.38
2023-02-01T06:42:29.299Z,87.40
2023-02-01T06:43:29.299Z,87.30
2023-02-01T06:44:29.281Z,86.96
2023-02-01T06:45:29.300Z,86.81
2023-02-01T06:46:29.313Z,86.73
2023-02-01T06:47:29.285Z,86.70
2023-02-01T06:48:29.260Z,86.69
2023-02-01T06:49:29.239Z,86.62
2023-02-01T06:50:29.229Z,86.59
2023-02-01T06:51:29.223Z,86.48
2023-02-01T06:52:29.223Z,86.42
2023-02-01T06:53:29.248Z,86.24
2023-02-01T06:54:29.208Z,86.08
2023-02-01T06:55:29.186Z,85.98
2023-02-01T06:56:29.162Z,85.89
2023-02-01T06:57:29.177Z,85.82
2023-02-01T06:58:29.156Z,85.73
2023-02-01T06:59:29.179Z,85.70
2023-02-01T07:00:29.193Z,85.68
2023-02-01T07:01:29.142Z,85.72
2023-02-01T07:02:29.109Z,85.72
2023-02-01T07:03:29.115Z,85.68
2023-02-01T07:04:29.131Z,85.66
2023-02-01T07:05:29.079Z,85.43
2023-02-01T07:06:29.077Z,85.31
2023-02-01T07:07:29.086Z,85.20
2023-02-01T07:08:29.067Z,85.21
2023-02-01T07:09:29.056Z,84.94
2023-02-01T07:10:29.085Z,84.74
2023-02-01T07:11:29.022Z,84.65
2023-02-01T07:12:29.017Z,84.64
2023-02-01T07:13:29.012Z,84.50
2023-02-01T07:14:29.013Z,84.31
2023-02-01T07:15:28.996Z,84.23
2023-02-01T07:16:29.017Z,84.17
2023-02-01T07:17:28.995Z,84.14
2023-02-01T07:18:28.954Z,84.10
2023-02-01T07:19:28.959Z,84.20
2023-02-01T07:20:29.001Z,84.08
2023-02-01T07:21:28.968Z,83.86
2023-02-01T07:22:28.955Z,83.80
2023-02-01T07:23:28.906Z,83.59
2023-02-01T07:24:28.892Z,83.40
2023-02-01T07:25:28.939Z,83.23
2023-02-01T07:26:28.964Z,83.13
2023-02-01T07:27:28.894Z,83.12
2023-02-01T07:28:28.883Z,82.93
2023-02-01T07:29:28.867Z,82.82
2023-02-01T07:30:28.982Z,82.82
2023-02-01T07:31:28.879Z,82.84
2023-02-01T07:32:28.852Z,82.69
2023-02-01T07:33:28.828Z,82.44
2023-02-01T07:34:28.852Z,82.27
2023-02-01T07:35:28.807Z,82.22
2023-02-01T07:36:28.814Z,82.23
2023-02-01T07:37:28.784Z,82.24
2023-02-01T07:38:28.788Z,82.40
2023-02-01T07:39:28.746Z,82.44
2023-02-01T07:40:28.836Z,82.65
2023-02-01T07:41:28.753Z,82.70
2023-02-01T07:42:28.778Z,82.90
2023-02-01T07:43:28.742Z,83.03
2023-02-01T07:44:28.756Z,83.10
2023-02-01T07:45:28.732Z,83.07
2023-02-01T07:46:28.677Z,83.02
2023-02-01T07:47:28.673Z,82.99
2023-02-01T07:48:28.675Z,82.99
2023-02-01T07:49:28.661Z,83.02
2023-02-01T07:50:28.670Z,83.12
2023-02-01T07:51:28.640Z,83.18
2023-02-01T07:52:28.616Z,83.01
2023-02-01T07:53:28.625Z,82.95
2023-02-01T07:54:28.596Z,82.88
2023-02-01T07:55:28.627Z,82.91
2023-02-01T07:56:28.665Z,83.02
2023-02-01T07:57:28.569Z,83.13
2023-02-01T07:58:28.732Z,82.91
2023-02-01T07:59:28.576Z,82.89
2023-02-01T08:00:28.556Z,82.89
2023-02-01T08:01:28.637Z,82.89
2023-02-01T08:02:28.619Z,82.89
2023-02-01T08:03:28.593Z,82.89
2023-02-01T08:04:28.509Z,82.76
2023-02-01T08:05:28.505Z,82.73
2023-02-01T08:06:28.577Z,82.68
2023-02-01T08:07:28.521Z,82.66
2023-02-01T08:08:28.495Z,82.63
2023-02-01T08:09:28.482Z,82.59
2023-02-01T08:10:28.466Z,82.59
2023-02-01T08:11:28.478Z,82.52
2023-02-01T08:12:28.445Z,82.39
2023-02-01T08:13:28.447Z,82.29
2023-02-01T08:14:28.418Z,82.22
2023-02-01T08:15:28.429Z,82.24
2023-02-01T08:16:28.467Z,82.17
2023-02-01T08:17:28.385Z,82.11
2023-02-01T08:18:28.396Z,82.09
2023-02-01T08:19:28.351Z,82.10
2023-02-01T08:20:28.376Z,82.05
2023-02-01T08:21:28.375Z,82.04
2023-02-01T08:22:28.530Z,81.94
2023-02-01T08:23:28.311Z,81.96
2023-02-01T08:24:28.350Z,81.85
2023-02-01T08:25:28.292Z,81.79
2023-02-01T08:26:28.337Z,81.87
2023-02-01T08:27:28.313Z,81.83
2023-02-01T08:28:28.272Z,81.63
2023-02-01T08:29:28.260Z,81.69
2023-02-01T08:30:28.347Z,81.47
2023-02-01T08:31:28.284Z,81.31
2023-02-01T08:32:28.239Z,81.33
2023-02-01T08:33:28.229Z,81.15
2023-02-01T08:34:28.228Z,81.07
2023-02-01T08:35:42.415Z,80.99
2023-02-01T08:36:28.253Z,80.83
2023-02-01T08:37:28.212Z,80.64
2023-02-01T08:38:28.178Z,80.46
2023-02-01T08:39:28.258Z,80.40
2023-02-01T08:40:28.166Z,80.47
2023-02-01T08:41:28.154Z,80.59
2023-02-01T08:42:28.148Z,80.59
2023-02-01T08:43:28.117Z,80.45
2023-02-01T08:44:28.116Z,80.27
2023-02-01T08:45:28.121Z,80.38
2023-02-01T08:46:28.182Z,80.49
2023-02-01T08:47:28.075Z,80.54
2023-02-01T08:48:28.092Z,80.47
2023-02-01T08:49:28.062Z,80.34
2023-02-01T08:50:28.279Z,80.21
2023-02-01T08:51:28.043Z,79.98
2023-02-01T08:52:28.075Z,80.07
2023-02-01T08:53:28.041Z,80.10
2023-02-01T08:54:28.011Z,79.89
2023-02-01T08:55:28.013Z,79.64
2023-02-01T08:56:28.071Z,79.35
2023-02-01T08:57:28.098Z,79.25
2023-02-01T08:58:28.001Z,79.06
2023-02-01T08:59:30.378Z,79.12
2023-02-01T09:00:27.973Z,79.03
2023-02-01T09:01:27.979Z,78.90
2023-02-01T09:02:27.973Z,78.92
2023-02-01T09:03:27.916Z,78.69
2023-02-01T09:04:27.947Z,78.65
2023-02-01T09:05:35.021Z,78.71
2023-02-01T09:06:27.907Z,78.85
2023-02-01T09:07:27.896Z,78.92
2023-02-01T09:08:27.876Z,78.95
2023-02-01T09:09:27.872Z,79.06
2023-02-01T09:10:35.067Z,79.09
2023-02-01T09:11:27.867Z,78.86
2023-02-01T09:12:27.838Z,78.84
2023-02-01T09:13:27.848Z,79.03
2023-02-01T09:14:27.817Z,79.10
2023-02-01T09:15:27.889Z,78.98
2023-02-01T09:16:27.920Z,78.92
2023-02-01T09:18:27.778Z,79.06
2023-02-01T09:19:27.789Z,79.05
2023-02-01T09:20:27.783Z,79.07
2023-02-01T09:21:27.863Z,78.84
2023-02-01T09:22:27.749Z,78.85
2023-02-01T09:23:27.743Z,78.91
2023-02-01T09:24:27.766Z,79.09
2023-02-01T09:25:27.707Z,79.17
2023-02-01T09:26:32.503Z,78.97
2023-02-01T09:27:27.751Z,78.72
2023-02-01T09:28:27.676Z,78.47
2023-02-01T09:29:27.668Z,78.57
2023-02-01T09:30:29.780Z,78.47
2023-02-01T09:31:27.795Z,78.57
2023-02-01T09:32:27.762Z,78.81
2023-02-01T09:33:27.667Z,78.75
2023-02-01T09:34:27.651Z,78.56
2023-02-01T09:35:27.626Z,78.49
2023-02-01T09:36:29.974Z,78.55
2023-02-01T09:37:27.618Z,78.24
2023-02-01T09:38:27.608Z,77.81
2023-02-01T09:39:27.581Z,77.33
2023-02-01T09:40:27.910Z,77.60
2023-02-01T09:41:27.557Z,77.81
2023-02-01T09:42:29.561Z,78.06
2023-02-01T09:43:27.534Z,78.24
2023-02-01T09:44:30.118Z,78.26
2023-02-01T09:45:27.540Z,77.64
2023-02-01T09:46:27.511Z,77.54
2023-02-01T09:47:27.523Z,77.85
2023-02-01T09:48:28.960Z,77.87
2023-02-01T09:49:27.468Z,77.72
2023-02-01T09:50:27.585Z,77.48
2023-02-01T09:51:27.459Z,77.51
2023-02-01T09:52:27.467Z,77.53
2023-02-01T09:53:27.466Z,77.01
2023-02-01T09:54:28.897Z,76.50
2023-02-01T09:55:27.415Z,76.03
2023-02-01T09:56:27.417Z,75.65
2023-02-01T09:57:27.390Z,75.68
2023-02-01T09:58:27.433Z,75.74
2023-02-01T09:59:27.435Z,75.28
2023-02-01T10:00:27.661Z,74.81
2023-02-01T10:01:27.487Z,74.75
2023-02-01T10:02:27.365Z,74.74
2023-02-01T10:03:27.413Z,74.75
2023-02-01T10:04:27.395Z,74.62
2023-02-01T10:05:27.330Z,74.52
2023-02-01T10:06:28.512Z,74.36
2023-02-01T10:07:27.304Z,74.38
2023-02-01T10:08:27.339Z,74.28
2023-02-01T10:09:27.269Z,74.34
2023-02-01T10:10:27.546Z,74.41
2023-02-01T10:11:27.260Z,74.45
2023-02-01T10:12:28.619Z,75.89
2023-02-01T10:13:27.242Z,77.27
2023-02-01T10:14:27.250Z,77.98
2023-02-01T10:15:27.213Z,78.32
2023-02-01T10:16:27.334Z,78.66
2023-02-01T10:17:27.215Z,79.13
2023-02-01T10:18:27.214Z,79.24
2023-02-01T10:19:27.193Z,79.35
2023-02-01T10:20:27.493Z,79.45
2023-02-01T10:21:27.157Z,79.27
2023-02-01T10:22:48.331Z,79.51
2023-02-01T10:23:33.910Z,79.56
2023-02-01T10:24:27.128Z,79.60
2023-02-01T10:25:27.146Z,79.74
2023-02-01T10:26:27.126Z,79.94
2023-02-01T10:27:27.096Z,79.75
2023-02-01T10:28:27.100Z,79.68
2023-02-01T10:29:27.086Z,79.60
2023-02-01T10:30:27.532Z,79.49
2023-02-01T10:31:27.219Z,78.94
2023-02-01T10:32:27.076Z,78.94
2023-02-01T10:33:27.057Z,79.02
2023-02-01T10:34:27.099Z,79.09
2023-02-01T10:35:27.012Z,79.38
2023-02-01T10:36:27.032Z,79.48
2023-02-01T10:37:27.003Z,79.48
2023-02-01T10:38:27.011Z,79.49
2023-02-01T10:39:27.003Z,79.41
2023-02-01T10:40:27.334Z,78.84
2023-02-01T10:41:27.033Z,78.36
2023-02-01T10:42:26.983Z,78.31
2023-02-01T10:43:26.943Z,78.49
2023-02-01T10:44:26.934Z,78.70
2023-02-01T10:45:26.957Z,78.96
2023-02-01T10:46:26.988Z,78.86
2023-02-01T10:47:26.911Z,78.97
2023-02-01T10:48:26.933Z,78.68
2023-02-01T10:49:26.877Z,78.03
2023-02-01T10:50:26.888Z,77.76
2023-02-01T10:51:26.869Z,77.60
2023-02-01T10:52:27.093Z,77.63
2023-02-01T10:53:26.870Z,77.34
2023-02-01T10:54:26.834Z,77.33
2023-02-01T10:55:26.820Z,77.33
2023-02-01T10:56:26.828Z,76.95
2023-02-01T10:57:26.864Z,76.71
2023-02-01T10:58:26.830Z,76.48
2023-02-01T10:59:26.774Z,75.96
2023-02-01T11:00:26.800Z,75.46
2023-02-01T11:01:26.794Z,75.07
2023-02-01T11:02:26.755Z,74.82
2023-02-01T11:03:26.748Z,74.67
2023-02-01T11:04:26.728Z,74.66
2023-02-01T11:05:26.722Z,74.25
2023-02-01T11:06:26.718Z,73.33
2023-02-01T11:07:26.710Z,72.88
2023-02-01T11:08:26.713Z,72.90
2023-02-01T11:09:26.695Z,72.68
2023-02-01T11:10:26.720Z,72.70
2023-02-01T11:11:26.674Z,72.65
2023-02-01T11:12:26.727Z,72.21
2023-02-01T11:13:26.649Z,71.87
2023-02-01T11:14:26.640Z,71.84
2023-02-01T11:15:27.158Z,72.10
2023-02-01T11:16:26.668Z,71.94
2023-02-01T11:17:26.609Z,71.97
2023-02-01T11:18:26.595Z,71.93
2023-02-01T11:19:26.612Z,71.67
2023-02-01T11:20:26.564Z,71.60
2023-02-01T11:21:26.577Z,71.57
2023-02-01T11:22:26.548Z,71.65
2023-02-01T11:23:26.552Z,71.53
2023-02-01T11:24:26.549Z,71.36
2023-02-01T11:25:26.964Z,71.39
2023-02-01T11:26:26.643Z,71.45
2023-02-01T11:27:27.788Z,71.40
2023-02-01T11:28:26.490Z,71.28
2023-02-01T11:29:26.507Z,71.37
2023-02-01T11:30:26.532Z,71.54
2023-02-01T11:31:26.561Z,71.57
2023-02-01T11:32:26.460Z,71.45
2023-02-01T11:33:26.465Z,71.27
2023-02-01T11:34:26.452Z,71.24
2023-02-01T11:35:26.447Z,71.13
2023-02-01T11:36:26.433Z,71.14
2023-02-01T11:37:26.422Z,70.77
2023-02-01T11:38:26.399Z,70.59
2023-02-01T11:39:26.386Z,70.50
2023-02-01T11:40:26.544Z,70.57
2023-02-01T11:41:26.376Z,70.61
2023-02-01T11:42:26.379Z,70.64
2023-02-01T11:43:26.358Z,70.49
2023-02-01T11:44:26.368Z,70.55
2023-02-01T11:45:26.335Z,70.32
2023-02-01T11:46:26.366Z,70.03
2023-02-01T11:47:26.339Z,70.01
2023-02-01T11:48:27.391Z,69.91
2023-02-01T11:49:26.285Z,70.05
2023-02-01T11:50:26.325Z,69.82
2023-02-01T11:51:26.262Z,69.77
2023-02-01T11:52:26.295Z,69.61
2023-02-01T11:53:26.263Z,69.62
2023-02-01T11:54:26.231Z,69.71
2023-02-01T11:55:26.240Z,69.42
2023-02-01T11:56:26.224Z,69.59
2023-02-01T11:57:26.234Z,69.71
2023-02-01T11:58:26.187Z,69.54
2023-02-01T11:59:26.199Z,69.16
2023-02-01T12:00:26.378Z,68.92
2023-02-01T12:01:26.243Z,69.20
2023-02-01T12:02:26.209Z,69.05
2023-02-01T12:03:26.226Z,69.03
2023-02-01T12:04:26.131Z,69.01
2023-02-01T12:05:26.125Z,69.01
2023-02-01T12:06:26.114Z,68.73
2023-02-01T12:07:26.138Z,68.73
2023-02-01T12:08:26.151Z,68.65
2023-02-01T12:09:26.115Z,68.37
2023-02-01T12:10:26.255Z,68.28
2023-02-01T12:11:26.095Z,68.18
2023-02-01T12:12:26.084Z,68.33
2023-02-01T12:13:26.055Z,67.88
2023-02-01T12:14:26.060Z,67.61
2023-02-01T12:15:26.048Z,67.66
2023-02-01T12:16:26.073Z,67.68
2023-02-01T12:17:26.040Z,67.64
2023-02-01T12:18:26.018Z,67.73
2023-02-01T12:19:26.021Z,67.83
2023-02-01T12:20:26.599Z,67.69
2023-02-01T12:21:25.959Z,67.83
2023-02-01T12:22:25.980Z,67.67
2023-02-01T12:23:25.952Z,67.49
2023-02-01T12:24:25.940Z,67.29
2023-02-01T12:25:25.950Z,67.38
2023-02-01T12:26:25.940Z,67.50
2023-02-01T12:27:25.907Z,67.59
2023-02-01T12:28:25.908Z,67.62
2023-02-01T12:29:25.916Z,67.60
2023-02-01T12:30:26.193Z,67.46
2023-02-01T12:31:25.955Z,67.11
2023-02-01T12:32:25.873Z,66.87
2023-02-01T12:33:25.861Z,66.98
2023-02-01T12:34:25.869Z,67.11
2023-02-01T12:35:25.844Z,67.34
2023-02-01T12:36:25.847Z,67.54
2023-02-01T12:37:25.875Z,67.86
2023-02-01T12:38:25.812Z,67.85
2023-02-01T12:39:25.849Z,67.96
2023-02-01T12:40:26.570Z,68.16
2023-02-01T12:41:25.822Z,67.89
2023-02-01T12:42:25.765Z,67.83
2023-02-01T12:43:25.763Z,67.96
2023-02-01T12:44:25.761Z,67.87
2023-02-01T12:45:25.732Z,67.98
2023-02-01T12:46:25.798Z,68.00
2023-02-01T12:47:25.706Z,68.41
2023-02-01T12:48:25.702Z,68.56
2023-02-01T12:49:25.729Z,68.56
2023-02-01T12:50:26.107Z,68.52
2023-02-01T12:51:25.670Z,68.60
2023-02-01T12:52:25.726Z,68.66
2023-02-01T12:53:25.680Z,68.87
2023-02-01T12:54:25.659Z,68.89